Terminal Aerodrome Forecast
Issued by NWS Dodge City, KS

Home | Current Version | Previous Version | Text Only | Print | Product List | Glossary On
Versions: 1 2 3 4 5 6 7 8 9 10 11 12 13 14 15 16 17 18 19 20 21 22 23 24 25 26 27
000
FTUS43 KDDC 080500
TAFDDC
TAF
KDDC 080520Z 0806/0906 20011KT P6SM VCTS SCT100CB
     FM080700 02012G20KT P6SM BKN200
     FM080900 03015G22KT P6SM SCT250
     FM081800 36007KT P6SM SCT100=

USA.gov is the U.S. government's official web portal to all federal, state and local government web resources and services.